Time;durP1;ratioP1;P1;durP2;ratioP2;P2;SDS_P1;SDS_P2;PMS_P1;PMS_P2;Temp;Humidity;BMP_temperature;BMP_pressure;BME280_temperature;BME280_humidity;BME280_pressure;Samples;Min_cycle;Max_cycle;Signal;HPM_P1;HPM_P2
2023/05/10 00:00:43;;;;;;;18.30;11.13;;;12.10;76.70;;;;;;5068074;28;20232;-69
2023/05/10 00:03:32;;;;;;;18.38;10.55;;;12.10;76.80;;;;;;5076669;28;20306;-68
2023/05/10 00:06:21;;;;;;;15.95;9.48;;;11.90;76.20;;;;;;5073897;28;20212;-70
2023/05/10 00:09:11;;;;;;;20.50;9.70;;;11.90;78.20;;;;;;5066722;28;20592;-69
2023/05/10 00:11:59;;;;;;;14.02;8.40;;;11.80;76.80;;;;;;5074021;28;20287;-69
2023/05/10 00:14:49;;;;;;;13.98;9.13;;;11.50;76.50;;;;;;5071084;28;20248;-69
2023/05/10 00:17:38;;;;;;;14.45;8.13;;;11.10;77.50;;;;;;5073942;28;20224;-68
2023/05/10 00:20:27;;;;;;;15.50;8.77;;;10.80;78.20;;;;;;5077689;28;20235;-70
2023/05/10 00:23:16;;;;;;;14.52;9.05;;;10.60;79.10;;;;;;5074108;28;20391;-70
2023/05/10 00:26:05;;;;;;;15.27;8.05;;;10.80;78.90;;;;;;5076353;28;20250;-73
2023/05/10 00:28:54;;;;;;;11.73;7.78;;;10.70;79.40;;;;;;5073029;28;20307;-72
2023/05/10 00:31:44;;;;;;;11.40;7.43;;;10.90;78.80;;;;;;5077251;28;20785;-70
2023/05/10 00:34:33;;;;;;;15.05;8.02;;;11.20;79.00;;;;;;5081860;28;20223;-70
2023/05/10 00:37:22;;;;;;;11.13;7.13;;;11.30;77.50;;;;;;5072518;28;20698;-70
2023/05/10 00:40:12;;;;;;;12.63;7.38;;;11.10;78.80;;;;;;5079552;28;20223;-70
2023/05/10 00:43:03;;;;;;;16.17;7.97;;;10.70;78.00;;;;;;5084941;28;20284;-70
2023/05/10 00:45:52;;;;;;;12.60;8.02;;;10.40;79.10;;;;;;5068496;28;20237;-70
2023/05/10 00:48:43;;;;;;;12.40;7.90;;;10.50;80.00;;;;;;5075126;28;20323;-70
2023/05/10 00:51:33;;;;;;;13.25;7.75;;;10.50;80.70;;;;;;5073013;28;20307;-69
2023/05/10 00:54:22;;;;;;;13.48;7.47;;;10.80;78.90;;;;;;5083314;28;20235;-67
2023/05/10 00:57:12;;;;;;;14.23;6.85;;;10.80;79.00;;;;;;5072294;28;20222;-68
2023/05/10 01:00:02;;;;;;;10.88;7.18;;;10.80;79.50;;;;;;5076911;28;20223;-68
2023/05/10 01:02:51;;;;;;;11.85;7.00;;;10.60;78.70;;;;;;5081035;28;20763;-69
2023/05/10 01:05:42;;;;;;;11.63;6.85;;;10.60;79.30;;;;;;5074683;28;20218;-69
2023/05/10 01:08:31;;;;;;;12.75;7.07;;;10.90;79.30;;;;;;5083247;28;20223;-69
2023/05/10 01:11:20;;;;;;;9.60;6.63;;;10.80;79.00;;;;;;5078321;28;20223;-69
2023/05/10 01:14:09;;;;;;;11.00;6.65;;;10.50;78.50;;;;;;5080176;28;20706;-70
2023/05/10 01:16:58;;;;;;;11.70;6.75;;;10.40;79.10;;;;;;5077116;28;20228;-69
2023/05/10 01:19:47;;;;;;;10.63;6.35;;;10.80;79.60;;;;;;5080710;28;20582;-70
2023/05/10 01:23:00;;;;;;;11.38;6.43;;;10.50;78.80;;;;;;5069070;28;20236;-69
2023/05/10 01:26:13;;;;;;;10.25;6.68;;;10.50;80.00;;;;;;5073043;28;20219;-70
2023/05/10 01:29:37;;;;;;;9.68;6.28;;;10.50;80.00;;;;;;5076259;28;20286;-68
2023/05/10 01:32:36;;;;;;;10.52;6.50;;;10.70;79.20;;;;;;5065492;28;20306;-70
2023/05/10 01:35:33;;;;;;;12.02;6.57;;;10.50;78.90;;;;;;5076899;28;20264;-71
2023/05/10 01:38:31;;;;;;;8.07;6.25;;;10.40;79.10;;;;;;5078063;28;20247;-70
2023/05/10 01:41:29;;;;;;;11.95;6.60;;;10.30;80.00;;;;;;5071575;28;20228;-69
2023/05/10 01:44:35;;;;;;;9.35;5.75;;;10.30;79.30;;;;;;5070186;28;20350;-70
2023/05/10 01:47:31;;;;;;;9.43;6.07;;;10.00;80.00;;;;;;5078071;28;20235;-69
2023/05/10 01:50:28;;;;;;;9.55;5.97;;;9.90;79.90;;;;;;5069436;28;20264;-70
2023/05/10 01:53:21;;;;;;;8.10;5.47;;;9.90;80.30;;;;;;5079240;28;20234;-71
2023/05/10 01:56:12;;;;;;;7.53;5.55;;;10.10;79.70;;;;;;5076594;28;20231;-71
2023/05/10 01:59:06;;;;;;;9.45;5.78;;;10.00;80.00;;;;;;5098804;27;20378;-70
2023/05/10 02:01:58;;;;;;;13.95;5.72;;;10.10;80.40;;;;;;5074659;28;21061;-72
2023/05/10 02:04:48;;;;;;;9.27;5.80;;;10.40;80.40;;;;;;5074205;28;20220;-70
2023/05/10 02:07:39;;;;;;;7.05;5.40;;;10.50;79.50;;;;;;5072485;28;20239;-69
2023/05/10 02:10:29;;;;;;;9.25;5.20;;;10.10;79.10;;;;;;5070412;28;20227;-70
2023/05/10 02:13:19;;;;;;;9.00;5.60;;;10.00;79.60;;;;;;5075725;28;20253;-69
2023/05/10 02:16:10;;;;;;;7.78;5.50;;;9.70;80.40;;;;;;5077331;28;20239;-68
2023/05/10 02:19:02;;;;;;;9.13;5.28;;;9.60;80.90;;;;;;5084610;28;20235;-68
2023/05/10 02:21:52;;;;;;;7.97;4.82;;;9.70;81.20;;;;;;5066929;28;20249;-71
2023/05/10 02:24:43;;;;;;;8.25;5.35;;;9.80;80.70;;;;;;5078861;28;20216;-70
2023/05/10 02:27:32;;;;;;;9.30;5.43;;;9.80;81.10;;;;;;5077681;28;20730;-69
2023/05/10 02:30:22;;;;;;;7.80;5.00;;;9.70;80.90;;;;;;5070223;28;20231;-69
2023/05/10 02:33:12;;;;;;;9.25;5.28;;;9.70;81.30;;;;;;5072240;28;20307;-70
2023/05/10 02:36:03;;;;;;;8.48;5.00;;;9.90;80.60;;;;;;5073003;28;20749;-69
2023/05/10 02:38:53;;;;;;;8.82;5.30;;;9.80;80.70;;;;;;5108024;27;20986;-70
2023/05/10 02:41:47;;;;;;;7.97;5.20;;;;;;;;;;5071082;28;20227;-70
2023/05/10 02:44:37;;;;;;;8.60;5.10;;;9.70;80.50;;;;;;5076772;28;20211;-72
2023/05/10 02:47:26;;;;;;;8.80;5.10;;;9.80;81.20;;;;;;5071571;28;20224;-72
2023/05/10 02:50:16;;;;;;;8.38;5.20;;;10.00;80.90;;;;;;5079789;28;20710;-70
2023/05/10 02:53:11;;;;;;;8.90;5.30;;;9.90;81.00;;;;;;5070819;28;20220;-70
2023/05/10 02:56:06;;;;;;;6.40;5.22;;;9.90;81.40;;;;;;5069480;28;20332;-71
2023/05/10 02:58:57;;;;;;;11.30;5.63;;;10.20;82.00;;;;;;5079980;28;20219;-72
2023/05/10 03:01:45;;;;;;;10.48;4.95;;;10.20;81.40;;;;;;5073905;28;20288;-72
2023/05/10 03:04:34;;;;;;;7.30;4.90;;;9.90;81.60;;;;;;5080624;28;20215;-70
2023/05/10 03:07:24;;;;;;;10.85;5.13;;;10.00;82.30;;;;;;5072462;28;20382;-69
2023/05/10 03:10:13;;;;;;;8.88;5.35;;;9.80;81.40;;;;;;5067278;28;20328;-69
2023/05/10 03:13:10;;;;;;;8.50;5.85;;;9.90;81.40;;;;;;5067275;28;20220;-70
2023/05/10 03:16:08;;;;;;;11.68;5.72;;;9.80;82.80;;;;;;5073015;28;20239;-70
2023/05/10 03:19:07;;;;;;;9.60;5.65;;;9.80;82.40;;;;;;5073737;28;20255;-69
2023/05/10 03:22:00;;;;;;;9.82;5.35;;;10.10;82.80;;;;;;5070241;28;20216;-69
2023/05/10 03:24:57;;;;;;;12.60;5.63;;;10.00;81.80;;;;;;5080609;28;20535;-69
2023/05/10 03:27:48;;;;;;;8.75;5.53;;;10.00;83.00;;;;;;5075013;28;20215;-71
2023/05/10 03:30:40;;;;;;;9.82;5.80;;;10.10;83.50;;;;;;5075105;28;21273;-71
2023/05/10 03:33:33;;;;;;;11.30;6.20;;;10.30;82.60;;;;;;5087406;28;20223;-69
2023/05/10 03:36:21;;;;;;;11.50;6.05;;;10.30;81.50;;;;;;5060119;28;20366;-69
2023/05/10 03:39:11;;;;;;;9.18;5.43;;;10.30;82.20;;;;;;5058954;28;20211;-71
2023/05/10 03:41:59;;;;;;;13.15;6.20;;;10.30;81.50;;;;;;5067038;28;20227;-68
2023/05/10 03:44:49;;;;;;;13.25;5.70;;;10.30;81.90;;;;;;5053402;28;20224;-69
2023/05/10 03:47:40;;;;;;;9.40;5.57;;;10.10;81.20;;;;;;5065975;28;20223;-68
2023/05/10 03:50:30;;;;;;;9.65;5.60;;;10.10;82.30;;;;;;5065094;28;20228;-71
2023/05/10 03:53:19;;;;;;;8.80;5.35;;;10.30;82.40;;;;;;5075276;28;20240;-71
2023/05/10 03:56:09;;;;;;;8.60;5.45;;;10.20;82.50;;;;;;5067182;28;20268;-70
2023/05/10 03:58:58;;;;;;;10.40;5.72;;;10.30;81.80;;;;;;5084006;27;20703;-69
2023/05/10 04:01:47;;;;;;;10.27;5.32;;;10.60;81.80;;;;;;5068248;28;20216;-69
2023/05/10 04:04:36;;;;;;;11.77;5.85;;;10.30;80.90;;;;;;5078311;28;20224;-70
2023/05/10 04:07:27;;;;;;;8.32;5.38;;;10.40;81.40;;;;;;5062987;28;20220;-69
2023/05/10 04:10:17;;;;;;;9.40;5.05;;;10.10;81.20;;;;;;5054611;28;20232;-67
2023/05/10 04:13:06;;;;;;;10.75;5.93;;;9.90;81.50;;;;;;5080320;28;20240;-66
2023/05/10 04:15:55;;;;;;;11.95;5.50;;;9.80;81.90;;;;;;5073952;28;20365;-68
2023/05/10 04:18:44;;;;;;;13.50;5.72;;;9.70;82.00;;;;;;5079543;28;20224;-69
2023/05/10 04:21:32;;;;;;;10.80;5.63;;;10.00;81.90;;;;;;5075345;28;20231;-70
2023/05/10 04:24:23;;;;;;;9.00;4.80;;;9.90;81.60;;;;;;5074414;28;20675;-69
2023/05/10 04:27:11;;;;;;;12.43;5.50;;;10.10;81.00;;;;;;5076681;28;20235;-68
2023/05/10 04:30:00;;;;;;;11.23;5.07;;;10.30;82.10;;;;;;5073823;28;20663;-69
2023/05/10 04:32:49;;;;;;;9.93;5.50;;;10.40;80.20;;;;;;5056432;28;20321;-69
2023/05/10 04:35:39;;;;;;;8.75;4.75;;;10.70;80.00;;;;;;5062495;28;20886;-70
2023/05/10 04:38:28;;;;;;;10.63;4.80;;;10.90;80.30;;;;;;5056749;28;20225;-70
2023/05/10 04:41:18;;;;;;;10.90;5.15;;;11.00;79.10;;;;;;5056932;28;20233;-70
2023/05/10 04:44:07;;;;;;;12.80;5.05;;;10.70;79.50;;;;;;5057852;28;20232;-67
2023/05/10 04:46:56;;;;;;;7.78;4.90;;;10.90;79.50;;;;;;5057881;28;20219;-69
2023/05/10 04:49:45;;;;;;;8.07;4.40;;;10.70;79.80;;;;;;5055750;28;20216;-70
2023/05/10 04:52:34;;;;;;;14.20;5.45;;;11.30;79.90;;;;;;5056039;28;20570;-71
2023/05/10 04:55:23;;;;;;;9.02;5.32;;;11.30;79.70;;;;;;5043877;28;20227;-72
2023/05/10 04:58:13;;;;;;;11.68;4.90;;;11.30;79.90;;;;;;5038188;28;20220;-70
2023/05/10 05:01:07;;;;;;;11.63;4.68;;;11.50;77.50;;;;;;5052731;28;20247;-70
2023/05/10 05:03:56;;;;;;;14.48;6.30;;;11.60;77.40;;;;;;5048760;28;20221;-70
2023/05/10 05:06:45;;;;;;;12.00;4.63;;;11.80;77.60;;;;;;5056769;28;20823;-70
2023/05/10 05:09:33;;;;;;;10.05;4.70;;;11.80;77.10;;;;;;5050314;28;20263;-68
2023/05/10 05:12:22;;;;;;;9.07;4.97;;;12.10;77.60;;;;;;5062558;28;20983;-69
2023/05/10 05:15:13;;;;;;;7.82;4.18;;;12.20;75.80;;;;;;5054506;28;20243;-70
2023/05/10 05:18:02;;;;;;;11.07;5.30;;;12.20;75.20;;;;;;5058793;28;20224;-70
2023/05/10 05:20:51;;;;;;;6.57;4.80;;;12.30;75.70;;;;;;5066125;28;20307;-69
2023/05/10 05:23:40;;;;;;;14.95;4.93;;;12.70;75.90;;;;;;5057261;28;20220;-68
2023/05/10 05:26:29;;;;;;;9.75;4.40;;;12.60;74.30;;;;;;5054911;28;20225;-70
2023/05/10 05:29:18;;;;;;;10.60;4.65;;;12.50;75.00;;;;;;5049597;28;20761;-68
2023/05/10 05:32:08;;;;;;;6.85;4.57;;;12.60;75.80;;;;;;5071968;28;20232;-70
2023/05/10 05:34:57;;;;;;;10.02;4.28;;;12.70;75.50;;;;;;5079838;28;20235;-69
2023/05/10 05:37:46;;;;;;;11.93;4.68;;;12.80;74.70;;;;;;5077516;28;20283;-70
2023/05/10 05:40:35;;;;;;;8.18;4.25;;;12.90;74.90;;;;;;5081760;28;20235;-70
2023/05/10 05:43:24;;;;;;;10.45;5.00;;;12.90;74.40;;;;;;5079756;28;20650;-70
2023/05/10 05:46:13;;;;;;;8.57;4.70;;;13.10;74.50;;;;;;5103360;27;20246;-68
2023/05/10 05:49:03;;;;;;;11.95;4.70;;;13.30;74.30;;;;;;5072807;28;21619;-68
2023/05/10 05:51:52;;;;;;;9.73;4.38;;;14.20;72.50;;;;;;5077365;28;20230;-68
2023/05/10 05:54:41;;;;;;;8.25;4.95;;;15.70;70.10;;;;;;5068748;27;20211;-69
2023/05/10 05:57:31;;;;;;;8.32;4.20;;;16.30;66.60;;;;;;5072842;28;20243;-70
2023/05/10 06:00:21;;;;;;;10.38;4.55;;;16.50;65.60;;;;;;5081284;28;20632;-69
2023/05/10 06:03:10;;;;;;;13.43;4.50;;;18.20;64.30;;;;;;5081326;28;20956;-72
2023/05/10 06:06:01;;;;;;;9.50;5.20;;;19.80;59.40;;;;;;5069286;28;20254;-70
2023/05/10 06:08:50;;;;;;;7.10;4.90;;;19.10;58.70;;;;;;5076801;28;20224;-69
2023/05/10 06:11:39;;;;;;;8.27;4.78;;;17.60;60.90;;;;;;5072274;28;20316;-70
2023/05/10 06:14:28;;;;;;;8.52;4.88;;;16.10;64.20;;;;;;5071144;28;20219;-69
2023/05/10 06:17:17;;;;;;;7.90;4.63;;;15.80;66.30;;;;;;5067175;28;20306;-71
2023/05/10 06:20:07;;;;;;;8.93;4.40;;;15.20;68.50;;;;;;5077020;28;20228;-70
2023/05/10 06:22:58;;;;;;;10.05;4.80;;;15.10;68.60;;;;;;5079875;28;20438;-71
2023/05/10 06:25:47;;;;;;;10.90;4.70;;;15.10;68.70;;;;;;5072272;28;20227;-71
2023/05/10 06:28:38;;;;;;;8.65;4.75;;;15.40;69.40;;;;;;5079991;28;20211;-70
2023/05/10 06:31:27;;;;;;;7.28;3.90;;;16.80;66.90;;;;;;5080652;28;20706;-71
2023/05/10 06:34:15;;;;;;;9.02;4.43;;;18.30;63.70;;;;;;5075294;28;20308;-69
2023/05/10 06:37:05;;;;;;;7.90;4.50;;;18.00;62.60;;;;;;5081068;28;20231;-68
2023/05/10 06:39:55;;;;;;;12.10;4.30;;;16.70;64.50;;;;;;5065143;28;20719;-68
2023/05/10 06:42:44;;;;;;;9.30;4.03;;;15.90;66.60;;;;;;5066859;28;20220;-69
2023/05/10 06:45:33;;;;;;;8.15;3.85;;;15.90;67.60;;;;;;5065073;28;20223;-69
2023/05/10 06:48:22;;;;;;;6.07;3.85;;;15.90;67.60;;;;;;5055247;28;20530;-72
2023/05/10 06:51:11;;;;;;;7.75;3.53;;;15.40;67.40;;;;;;5068599;28;20223;-70
2023/05/10 06:54:00;;;;;;;7.70;4.00;;;15.80;67.50;;;;;;5057242;28;20236;-70
2023/05/10 06:56:50;;;;;;;6.55;3.90;;;16.10;66.70;;;;;;5072724;28;20382;-70
2023/05/10 06:59:39;;;;;;;3.85;3.30;;;16.20;66.60;;;;;;5071749;28;20228;-70
2023/05/10 07:02:28;;;;;;;10.55;3.67;;;16.40;65.90;;;;;;5056714;28;20254;-67
2023/05/10 07:05:17;;;;;;;6.65;3.35;;;16.90;66.20;;;;;;5078915;28;20467;-71
2023/05/10 07:08:08;;;;;;;7.72;3.70;;;16.90;64.00;;;;;;5081073;28;20242;-72
2023/05/10 07:11:01;;;;;;;6.97;3.70;;;17.10;64.30;;;;;;5071609;28;20216;-71
2023/05/10 07:13:51;;;;;;;4.63;2.80;;;17.00;64.30;;;;;;5055430;28;20215;-71
2023/05/10 07:16:40;;;;;;;6.57;2.90;;;17.10;63.00;;;;;;5068832;28;20270;-72
2023/05/10 07:19:32;;;;;;;4.55;2.88;;;17.50;61.80;;;;;;5070160;28;20211;-72
2023/05/10 07:22:21;;;;;;;6.85;2.90;;;17.70;60.40;;;;;;5070632;28;20306;-71
2023/05/10 07:25:10;;;;;;;3.53;2.67;;;17.70;59.90;;;;;;5074757;28;20231;-71
2023/05/10 07:27:59;;;;;;;7.32;2.60;;;18.20;59.40;;;;;;5075419;28;20223;-71
2023/05/10 07:30:49;;;;;;;5.45;2.70;;;18.00;58.90;;;;;;5080020;28;20253;-72
2023/05/10 07:33:38;;;;;;;9.98;2.70;;;18.60;57.20;;;;;;5078348;28;20220;-71
2023/05/10 07:36:27;;;;;;;3.50;2.13;;;18.50;57.10;;;;;;5078425;28;20234;-71
2023/05/10 07:39:16;;;;;;;4.97;2.25;;;18.40;55.60;;;;;;5073636;28;20223;-71
2023/05/10 07:42:14;;;;;;;5.50;2.30;;;18.70;54.00;;;;;;5081467;28;20219;-72
2023/05/10 07:45:03;;;;;;;8.45;2.25;;;19.10;53.40;;;;;;5074985;28;20289;-70
2023/05/10 07:47:53;;;;;;;3.97;2.58;;;19.30;54.10;;;;;;5082028;28;20729;-72
2023/05/10 07:50:42;;;;;;;5.05;2.42;;;19.50;53.20;;;;;;5073542;28;20223;-74
2023/05/10 07:53:31;;;;;;;3.63;2.60;;;19.80;52.50;;;;;;5078453;28;20226;-72
2023/05/10 07:56:26;;;;;;;6.32;2.83;;;20.40;53.90;;;;;;5084738;28;20214;-71
2023/05/10 07:59:17;;;;;;;5.70;2.85;;;20.80;52.50;;;;;;5078894;28;20226;-71
2023/05/10 08:02:07;;;;;;;5.88;2.35;;;21.10;50.60;;;;;;5099993;27;20234;-71
2023/05/10 08:04:57;;;;;;;9.68;2.50;;;21.70;49.50;;;;;;5075184;28;20227;-72
2023/05/10 08:07:46;;;;;;;6.95;2.47;;;21.70;48.60;;;;;;5083839;28;20238;-70
2023/05/10 08:10:35;;;;;;;5.63;2.42;;;21.40;47.80;;;;;;5085957;28;20226;-70
2023/05/10 08:13:24;;;;;;;5.28;1.90;;;21.40;47.80;;;;;;5082015;28;20218;-72
2023/05/10 08:16:13;;;;;;;6.18;2.40;;;21.60;47.20;;;;;;5080345;28;20230;-70
2023/05/10 08:19:02;;;;;;;6.32;2.45;;;21.60;46.50;;;;;;5079476;28;20230;-73
2023/05/10 08:21:55;;;;;;;14.43;2.75;;;22.10;46.30;;;;;;5073672;28;20582;-72
2023/05/10 08:24:44;;;;;;;3.75;2.10;;;21.50;45.00;;;;;;5075568;28;20231;-72
2023/05/10 08:27:32;;;;;;;6.63;2.28;;;21.80;46.20;;;;;;5085447;28;20890;-70
2023/05/10 08:30:21;;;;;;;6.45;2.38;;;21.50;45.60;;;;;;5075769;28;20346;-72
2023/05/10 08:33:10;;;;;;;6.15;2.42;;;22.40;46.30;;;;;;5081215;28;20234;-71
2023/05/10 08:35:59;;;;;;;3.90;2.30;;;22.50;46.90;;;;;;5071206;28;20761;-71
2023/05/10 08:38:51;;;;;;;6.18;2.17;;;23.10;44.50;;;;;;5080821;28;20215;-71
2023/05/10 08:41:41;;;;;;;11.40;2.50;;;23.50;44.00;;;;;;5076965;27;20301;-72
2023/05/10 08:44:30;;;;;;;5.82;2.22;;;22.30;45.10;;;;;;5072943;28;20779;-73
2023/05/10 08:47:19;;;;;;;7.03;2.30;;;22.60;44.50;;;;;;5068854;28;20227;-71
2023/05/10 08:50:09;;;;;;;5.07;2.28;;;22.40;44.60;;;;;;5070570;28;20353;-74
2023/05/10 08:53:01;;;;;;;6.10;2.38;;;22.50;44.80;;;;;;5077838;28;20711;-72
2023/05/10 08:55:52;;;;;;;3.92;2.50;;;22.60;43.90;;;;;;5065830;28;20251;-75
2023/05/10 08:58:41;;;;;;;4.65;2.67;;;22.80;44.60;;;;;;5079787;28;20231;-74
2023/05/10 09:01:32;;;;;;;8.45;2.50;;;23.50;44.60;;;;;;5074916;28;20274;-72
2023/05/10 09:04:21;;;;;;;6.85;2.83;;;23.50;44.60;;;;;;5071904;28;20231;-72
2023/05/10 09:07:12;;;;;;;5.65;2.17;;;23.20;44.50;;;;;;5079253;28;20306;-73
2023/05/10 09:10:01;;;;;;;8.40;2.60;;;23.70;42.00;;;;;;5080737;28;20521;-72
2023/05/10 09:12:51;;;;;;;7.30;2.30;;;23.80;42.90;;;;;;5078738;28;20269;-74
2023/05/10 09:15:40;;;;;;;6.13;2.63;;;24.20;43.80;;;;;;5084691;28;20776;-73
2023/05/10 09:18:29;;;;;;;13.55;3.22;;;24.60;44.60;;;;;;5075677;28;20227;-72
2023/05/10 09:21:21;;;;;;;5.75;2.72;;;24.90;40.70;;;;;;5069740;28;21165;-73
2023/05/10 09:24:10;;;;;;;4.05;2.72;;;24.40;41.00;;;;;;5070241;28;20216;-71
2023/05/10 09:26:59;;;;;;;7.65;2.33;;;24.50;42.60;;;;;;5081207;27;20212;-72
2023/05/10 09:29:54;;;;;;;8.52;2.42;;;25.10;40.70;;;;;;5090934;28;20230;-71
2023/05/10 09:32:44;;;;;;;7.25;2.70;;;24.50;41.10;;;;;;5074091;28;20231;-70
2023/05/10 09:35:34;;;;;;;3.85;2.80;;;25.80;41.70;;;;;;5086992;28;20255;-71
2023/05/10 09:38:23;;;;;;;5.82;2.60;;;25.00;40.60;;;;;;5073034;28;20266;-72
2023/05/10 09:41:17;;;;;;;4.85;3.00;;;25.10;41.40;;;;;;5077305;28;20248;-72
2023/05/10 09:44:08;;;;;;;5.28;2.70;;;26.50;41.90;;;;;;5069283;28;20855;-71
2023/05/10 09:46:59;;;;;;;5.70;2.80;;;26.50;39.70;;;;;;5072839;28;20235;-70
2023/05/10 09:49:51;;;;;;;5.60;2.72;;;26.30;40.00;;;;;;5073895;28;20220;-72
2023/05/10 09:52:48;;;;;;;5.40;3.25;;;27.20;40.00;;;;;;5073240;28;20224;-72
2023/05/10 09:55:42;;;;;;;7.57;2.47;;;29.40;39.60;;;;;;5071373;28;20215;-71
2023/05/10 09:58:31;;;;;;;6.05;2.63;;;28.60;38.30;;;;;;5072287;28;20232;-70
2023/05/10 10:01:20;;;;;;;5.60;2.60;;;29.20;39.50;;;;;;5077524;28;20322;-70
2023/05/10 10:04:11;;;;;;;4.88;2.70;;;29.10;37.80;;;;;;5076295;28;20211;-70
2023/05/10 10:07:02;;;;;;;6.63;2.92;;;27.70;37.50;;;;;;5070067;28;20285;-71
2023/05/10 10:09:51;;;;;;;6.47;2.60;;;28.30;37.90;;;;;;5071728;28;20215;-74
2023/05/10 10:12:42;;;;;;;7.28;2.58;;;29.70;37.00;;;;;;5085035;27;20219;-72
2023/05/10 10:15:33;;;;;;;5.95;3.00;;;29.70;38.20;;;;;;5083782;28;20215;-72
2023/05/10 10:18:26;;;;;;;4.95;3.15;;;31.00;36.80;;;;;;5076297;28;20214;-71
2023/05/10 10:21:18;;;;;;;5.20;2.58;;;;;;;;;;5069597;28;20242;-71
2023/05/10 10:24:07;;;;;;;9.20;3.25;;;32.00;35.70;;;;;;5077920;28;20589;-69
2023/05/10 10:27:04;;;;;;;6.57;2.95;;;30.40;35.20;;;;;;5074631;28;20223;-71
2023/05/10 10:30:02;;;;;;;6.00;2.67;;;31.20;36.30;;;;;;5101623;27;20865;-71
2023/05/10 10:33:12;;;;;;;6.88;2.95;;;32.40;36.00;;;;;;5076732;28;20241;-71
2023/05/10 10:36:18;;;;;;;4.22;2.92;;;32.90;33.50;;;;;;5082641;28;20906;-70
2023/05/10 10:39:11;;;;;;;6.53;2.72;;;31.40;35.20;;;;;;5080090;28;20744;-71
2023/05/10 10:42:02;;;;;;;6.90;2.80;;;33.20;35.50;;;;;;5069268;28;21382;-72
2023/05/10 10:45:11;;;;;;;7.70;3.13;;;35.50;34.30;;;;;;5077241;28;20218;-71
2023/05/10 10:48:22;;;;;;;10.18;3.00;;;34.10;32.40;;;;;;5092043;28;20265;-72
2023/05/10 10:51:11;;;;;;;8.57;2.55;;;34.80;31.70;;;;;;5080192;28;20225;-70
2023/05/10 10:54:10;;;;;;;4.82;2.70;;;34.70;31.40;;;;;;5074652;28;20644;-73
2023/05/10 10:57:22;;;;;;;5.82;2.60;;;35.80;31.90;;;;;;5080018;28;20235;-72
2023/05/10 11:00:28;;;;;;;3.45;2.60;;;34.20;31.30;;;;;;5073609;28;20317;-71
2023/05/10 11:03:19;;;;;;;7.07;2.58;;;35.60;32.70;;;;;;5075566;28;20218;-73
2023/05/10 11:06:08;;;;;;;7.53;2.55;;;36.60;31.40;;;;;;5071891;28;20238;-72
2023/05/10 11:08:57;;;;;;;6.90;2.55;;;35.40;30.10;;;;;;5077769;27;20721;-72
2023/05/10 11:11:54;;;;;;;6.35;2.55;;;35.10;30.50;;;;;;5072841;28;20673;-72
2023/05/10 11:14:44;;;;;;;5.28;2.55;;;34.60;31.30;;;;;;5074449;28;20222;-73
2023/05/10 11:17:35;;;;;;;7.25;2.95;;;34.20;31.00;;;;;;5075767;28;20219;-72
2023/05/10 11:20:32;;;;;;;5.25;2.53;;;34.10;30.30;;;;;;5079321;28;20936;-72
2023/05/10 11:23:21;;;;;;;8.05;2.38;;;35.70;30.90;;;;;;5071172;28;20231;-72
2023/05/10 11:26:11;;;;;;;5.10;2.40;;;39.30;30.00;;;;;;5083176;28;20761;-73
2023/05/10 11:29:02;;;;;;;7.35;2.72;;;37.50;29.70;;;;;;5070641;28;20247;-71
2023/05/10 11:31:52;;;;;;;6.47;2.50;;;34.90;31.50;;;;;;5081313;28;20219;-72
2023/05/10 11:34:41;;;;;;;6.00;2.63;;;36.60;30.90;;;;;;5073438;28;20757;-72
2023/05/10 11:37:33;;;;;;;9.80;2.75;;;39.70;30.40;;;;;;5073518;28;20289;-75
2023/05/10 11:40:24;;;;;;;6.25;2.45;;;40.60;29.40;;;;;;5078005;28;20310;-75
2023/05/10 11:43:13;;;;;;;10.82;2.80;;;41.40;28.70;;;;;;5078401;28;20264;-73
2023/05/10 11:46:03;;;;;;;7.38;2.67;;;37.50;29.70;;;;;;5078706;28;20231;-70
2023/05/10 11:49:01;;;;;;;4.40;2.42;;;40.10;28.90;;;;;;5075990;28;20230;-72
2023/05/10 11:51:50;;;;;;;10.02;2.88;;;42.10;28.00;;;;;;5080496;28;20224;-72
2023/05/10 11:54:45;;;;;;;5.75;2.30;;;42.30;28.20;;;;;;5079540;28;20227;-73
2023/05/10 11:57:38;;;;;;;8.10;2.60;;;42.90;27.60;;;;;;5077412;28;20226;-74
2023/05/10 12:00:27;;;;;;;4.18;2.28;;;41.20;28.60;;;;;;5076994;28;20231;-73
2023/05/10 12:03:17;;;;;;;7.35;2.90;;;39.50;28.30;;;;;;5073909;28;20755;-73
2023/05/10 12:06:08;;;;;;;7.00;2.95;;;38.30;29.00;;;;;;5072463;28;20222;-72
2023/05/10 12:08:57;;;;;;;63.63;5.97;;;;;;;;;;5072083;28;20998;-71
2023/05/10 12:11:46;;;;;;;5.45;2.35;;;39.50;30.50;;;;;;5070207;28;20232;-72
2023/05/10 12:14:35;;;;;;;6.07;2.70;;;38.10;32.70;;;;;;5081003;28;20601;-72
2023/05/10 12:17:29;;;;;;;7.40;2.63;;;41.40;34.20;;;;;;5084593;28;20280;-72
2023/05/10 12:20:20;;;;;;;10.82;3.10;;;43.70;33.30;;;;;;5083337;28;20215;-72
2023/05/10 12:23:10;;;;;;;10.98;3.28;;;42.10;33.40;;;;;;5080736;28;20281;-72
2023/05/10 12:26:03;;;;;;;8.52;2.67;;;41.70;35.60;;;;;;5080039;28;20242;-72
2023/05/10 12:28:52;;;;;;;7.28;3.00;;;;;;;;;;5080116;28;20815;-72
2023/05/10 12:31:52;;;;;;;7.50;2.42;;;36.70;34.00;;;;;;5072885;28;20215;-72
2023/05/10 12:34:40;;;;;;;6.40;2.78;;;28.50;32.10;;;;;;5077141;28;20229;-72
2023/05/10 12:37:35;;;;;;;5.60;2.60;;;26.50;41.00;;;;;;5076467;28;20665;-70
2023/05/10 12:40:24;;;;;;;6.55;2.83;;;26.50;46.30;;;;;;5079886;28;20959;-72
2023/05/10 12:43:13;;;;;;;23.90;3.42;;;25.00;44.70;;;;;;5079200;28;20376;-72
2023/05/10 12:46:06;;;;;;;5.50;2.47;;;24.20;48.70;;;;;;5078608;28;20299;-71
2023/05/10 12:48:55;;;;;;;6.70;2.40;;;22.90;54.00;;;;;;5083195;28;20348;-74
2023/05/10 12:51:56;;;;;;;4.10;2.85;;;23.00;53.00;;;;;;5076191;28;20212;-71
2023/05/10 12:54:47;;;;;;;8.82;2.95;;;22.80;54.50;;;;;;5079689;28;21004;-72
2023/05/10 12:57:36;;;;;;;4.60;2.58;;;21.90;55.00;;;;;;5083388;27;20219;-72
2023/05/10 13:00:25;;;;;;;7.07;2.92;;;21.50;54.90;;;;;;5077912;28;20216;-72
2023/05/10 13:03:15;;;;;;;7.80;2.85;;;21.30;56.10;;;;;;5081523;28;20215;-72
2023/05/10 13:06:04;;;;;;;6.95;2.65;;;21.00;56.10;;;;;;5075553;28;20226;-71
2023/05/10 13:08:53;;;;;;;4.47;2.38;;;21.10;56.30;;;;;;5072595;28;20266;-71
2023/05/10 13:11:45;;;;;;;7.40;2.47;;;21.60;55.80;;;;;;5080695;28;20303;-70
2023/05/10 13:14:34;;;;;;;4.43;2.22;;;21.20;55.70;;;;;;5084785;28;20675;-69
2023/05/10 13:17:24;;;;;;;4.70;2.50;;;20.90;51.80;;;;;;5080298;28;20230;-73
2023/05/10 13:20:14;;;;;;;7.53;2.50;;;21.00;46.70;;;;;;5069301;28;20235;-73
2023/05/10 13:23:04;;;;;;;7.00;2.40;;;20.20;45.00;;;;;;5073977;28;20254;-73
2023/05/10 13:25:53;;;;;;;4.63;2.50;;;20.10;45.40;;;;;;5075239;28;20231;-75
2023/05/10 13:28:45;;;;;;;5.35;2.80;;;20.10;45.50;;;;;;5076942;28;20220;-74
2023/05/10 13:31:35;;;;;;;5.20;2.33;;;20.50;46.40;;;;;;5087107;28;20583;-70
2023/05/10 13:34:25;;;;;;;6.55;2.17;;;20.60;46.00;;;;;;5074312;28;20228;-75
2023/05/10 13:37:14;;;;;;;7.90;2.20;;;21.10;45.50;;;;;;5075750;28;20231;-74
2023/05/10 13:40:04;;;;;;;4.38;2.30;;;21.00;45.50;;;;;;5076003;28;20244;-74
2023/05/10 13:42:52;;;;;;;4.65;2.30;;;21.00;45.10;;;;;;5078077;28;20293;-73
2023/05/10 13:45:43;;;;;;;8.90;2.75;;;20.70;45.60;;;;;;5068883;28;20231;-74
2023/05/10 13:48:32;;;;;;;9.30;2.72;;;20.30;46.00;;;;;;5072140;28;20212;-81
2023/05/10 13:51:24;;;;;;;6.40;2.40;;;20.90;46.80;;;;;;5082167;28;20239;-79
2023/05/10 13:54:13;;;;;;;4.18;2.40;;;20.60;45.70;;;;;;5070775;28;20227;-79
2023/05/10 13:57:02;;;;;;;4.72;2.40;;;20.50;45.60;;;;;;5074334;28;20284;-80
2023/05/10 13:59:52;;;;;;;5.07;2.10;;;20.30;45.60;;;;;;5075821;28;20276;-79
2023/05/10 14:02:43;;;;;;;3.78;2.25;;;20.10;46.00;;;;;;5078721;28;20230;-79
2023/05/10 14:05:33;;;;;;;4.30;2.13;;;20.10;47.20;;;;;;5073849;28;20315;-77
2023/05/10 14:08:22;;;;;;;4.40;2.33;;;20.00;46.80;;;;;;5072946;28;20227;-78
2023/05/10 14:11:11;;;;;;;5.20;2.25;;;19.90;46.00;;;;;;5070717;28;20734;-83
2023/05/10 14:14:00;;;;;;;5.32;2.50;;;20.00;46.30;;;;;;5067410;28;20255;-83
2023/05/10 14:16:50;;;;;;;6.70;2.50;;;20.00;46.10;;;;;;5073654;28;20579;-81
2023/05/10 14:19:41;;;;;;;5.40;2.00;;;19.90;46.50;;;;;;5079218;28;20237;-82
2023/05/10 14:22:30;;;;;;;6.32;2.20;;;20.00;47.00;;;;;;5091659;28;20315;-80
2023/05/10 14:25:19;;;;;;;7.50;2.60;;;19.70;47.20;;;;;;5074910;28;20227;-76
2023/05/10 14:28:08;;;;;;;7.07;2.55;;;19.40;46.70;;;;;;5082795;28;20237;-76
2023/05/10 14:30:57;;;;;;;6.97;2.50;;;19.50;47.20;;;;;;5084145;28;22065;-76
2023/05/10 14:33:46;;;;;;;6.68;2.20;;;19.60;47.10;;;;;;5093702;28;20223;-77
2023/05/10 14:36:37;;;;;;;4.28;1.98;;;19.30;46.20;;;;;;5085876;28;20224;-77
2023/05/10 14:39:29;;;;;;;3.58;2.10;;;19.10;46.90;;;;;;5072261;28;20376;-78
2023/05/10 14:42:19;;;;;;;4.78;2.10;;;19.20;46.90;;;;;;5076104;28;20742;-78
2023/05/10 14:45:09;;;;;;;6.35;2.17;;;19.20;47.60;;;;;;5087212;28;20268;-77
2023/05/10 14:47:59;;;;;;;6.15;2.30;;;19.20;47.40;;;;;;5081888;28;20219;-77